createdAt,value
2018-12-26T03:17:23.893Z,0
2018-12-26T03:18:11.902Z,0
2018-12-26T03:18:48.858Z,0
2018-12-26T03:19:29.228Z,0
2018-12-26T03:20:09.651Z,0
2018-12-26T03:20:50.021Z,0
2018-12-26T03:21:30.405Z,0
2018-12-26T03:22:10.920Z,0
2018-12-26T03:22:51.201Z,0
2018-12-26T03:23:31.642Z,0
2018-12-26T03:24:12.146Z,0
2018-12-26T03:24:52.552Z,0
2018-12-26T03:25:32.960Z,0
2018-12-26T03:26:13.385Z,0
2018-12-26T03:26:56.239Z,0
2018-12-26T03:27:34.204Z,0
2018-12-26T03:28:14.637Z,0
2018-12-26T03:28:54.968Z,0
2018-12-26T03:29:35.323Z,0
2018-12-26T03:30:15.767Z,0
2018-12-26T03:30:56.118Z,0
2018-12-26T03:31:36.552Z,0
2018-12-26T03:32:16.917Z,0
2018-12-26T03:32:57.271Z,0
2018-12-26T03:33:37.819Z,0
2018-12-26T03:34:18.150Z,0
2018-12-26T03:34:58.804Z,0
2018-12-26T03:35:39.080Z,0
2018-12-26T03:36:19.490Z,0
2018-12-26T03:36:59.867Z,0
2018-12-26T03:37:40.273Z,0
2018-12-26T03:38:20.666Z,0
2018-12-26T03:39:01.114Z,0
2018-12-26T03:39:41.451Z,0
2018-12-26T03:40:21.862Z,0
2018-12-26T03:41:02.242Z,0
2018-12-26T03:41:42.620Z,0
2018-12-26T03:42:23.023Z,0
2018-12-26T03:43:03.372Z,0
2018-12-26T03:43:43.996Z,0
2018-12-26T03:44:24.205Z,0
2018-12-26T03:45:04.570Z,0
2018-12-26T03:45:44.967Z,0
2018-12-26T03:46:25.335Z,0
2018-12-26T03:47:05.748Z,0
2018-12-26T03:47:46.158Z,0
2018-12-26T03:48:26.477Z,0
2018-12-26T03:49:06.836Z,0
2018-12-26T03:49:47.273Z,0
2018-12-26T03:50:27.671Z,0
2018-12-26T03:51:08.038Z,0
2018-12-26T03:51:48.401Z,0
2018-12-26T03:52:28.786Z,0
2018-12-26T03:53:09.283Z,0
2018-12-26T03:53:49.644Z,0
2018-12-26T03:54:29.995Z,0
2018-12-26T03:55:10.437Z,0
2018-12-26T03:55:50.847Z,0
2018-12-26T03:56:31.240Z,0
2018-12-26T03:57:11.692Z,0
2018-12-26T03:57:52.038Z,0
2018-12-26T03:58:32.357Z,0
2018-12-26T03:59:12.727Z,0
2018-12-26T03:59:53.195Z,0
2018-12-26T04:00:33.610Z,0
2018-12-26T04:01:13.963Z,0
2018-12-26T04:01:54.522Z,0
2018-12-26T04:02:34.887Z,0
2018-12-26T04:03:15.231Z,0
2018-12-26T04:03:55.719Z,0
2018-12-26T04:04:35.996Z,0
2018-12-26T04:05:16.466Z,0
2018-12-26T04:05:56.842Z,0
2018-12-26T04:06:37.236Z,0
2018-12-26T04:07:17.613Z,0
2018-12-26T04:07:58.065Z,0
2018-12-26T04:08:38.413Z,0
2018-12-26T04:09:18.807Z,0
2018-12-26T04:09:59.237Z,0
2018-12-26T04:10:39.617Z,0
2018-12-26T04:11:19.959Z,0
2018-12-26T04:12:00.400Z,0
2018-12-26T04:12:40.785Z,0
2018-12-26T04:13:21.188Z,0
2018-12-26T04:14:01.555Z,0
2018-12-26T04:14:41.956Z,0
2018-12-26T04:15:22.273Z,0
2018-12-26T04:16:02.801Z,0
2018-12-26T04:16:44.035Z,0
2018-12-26T04:17:24.432Z,0
2018-12-26T04:18:04.757Z,0
2018-12-26T04:18:45.140Z,0
2018-12-26T04:19:25.605Z,0
2018-12-26T04:20:07.029Z,0
2018-12-26T04:20:47.368Z,0
2018-12-26T04:21:27.739Z,0
2018-12-26T04:22:08.179Z,0
2018-12-26T04:22:48.518Z,0
2018-12-26T04:23:28.949Z,0
2018-12-26T04:24:09.422Z,0
2018-12-26T04:24:49.854Z,0
2018-12-26T04:25:30.214Z,0
2018-12-26T04:26:10.658Z,0
2018-12-26T04:26:51.096Z,0
2018-12-26T04:27:33.245Z,0
2018-12-26T09:32:38.179Z,35
2018-12-26T09:33:18.596Z,35
2018-12-26T09:33:58.996Z,35
2018-12-26T09:34:39.346Z,35
2018-12-26T09:35:20.919Z,35
2018-12-26T09:36:00.171Z,35
2018-12-26T09:36:40.555Z,35
2018-12-26T09:37:21.024Z,35
2018-12-26T09:38:01.394Z,35
2018-12-26T09:38:41.766Z,35
2018-12-26T09:39:22.282Z,35
2018-12-26T09:40:02.583Z,35
2018-12-26T09:40:42.979Z,35
2018-12-26T09:41:23.413Z,35
2018-12-26T09:42:03.761Z,35
2018-12-26T09:42:44.178Z,35
2018-12-26T09:43:24.582Z,35
2018-12-26T09:44:04.973Z,35
2018-12-26T09:44:54.123Z,35
2018-12-26T09:45:25.780Z,35
2018-12-26T09:46:06.158Z,35
2018-12-26T09:46:46.553Z,35
2018-12-26T09:47:26.956Z,35
2018-12-26T09:48:07.348Z,35
2018-12-26T09:48:47.736Z,35
2018-12-26T09:49:28.132Z,35
2018-12-26T09:50:08.545Z,35
2018-12-26T09:50:48.955Z,35
2018-12-26T09:51:29.337Z,35
2018-12-26T09:52:09.719Z,35
2018-12-26T09:52:50.123Z,35
2018-12-26T09:53:30.561Z,35
2018-12-26T09:54:10.905Z,35
2018-12-26T09:54:51.309Z,35
2018-12-26T09:55:31.734Z,35
2018-12-26T09:56:12.145Z,35
2018-12-26T09:56:52.578Z,35
2018-12-26T09:57:32.963Z,35
2018-12-26T09:58:13.380Z,40
2018-12-26T09:58:53.787Z,40
2018-12-26T09:59:34.208Z,40
2018-12-26T10:00:14.656Z,40
2018-12-26T10:00:55.023Z,40
2018-12-26T10:01:35.406Z,40
2018-12-26T10:02:15.798Z,40
2018-12-26T10:02:56.228Z,40
2018-12-26T10:03:36.585Z,40
2018-12-26T10:04:17.004Z,40
2018-12-26T10:04:57.385Z,40
2018-12-26T10:05:37.789Z,40
2018-12-26T10:06:18.203Z,40
2018-12-26T10:06:58.585Z,40
2018-12-26T10:07:39.010Z,40
2018-12-26T10:08:19.367Z,40
2018-12-26T10:08:59.767Z,40
2018-12-26T10:09:40.173Z,40
2018-12-26T10:10:20.552Z,40
2018-12-26T10:11:00.947Z,40
2018-12-26T10:11:41.380Z,40
2018-12-26T10:12:21.750Z,40
2018-12-26T10:13:02.123Z,40
2018-12-26T10:13:42.552Z,40
2018-12-26T10:14:22.969Z,40
2018-12-26T10:15:03.353Z,40
2018-12-26T10:15:43.752Z,40
2018-12-26T10:16:24.149Z,40
2018-12-26T10:17:04.551Z,40
2018-12-26T10:17:44.984Z,40
2018-12-26T10:18:25.366Z,40
2018-12-26T10:19:05.794Z,40
2018-12-26T10:19:46.175Z,40
2018-12-26T10:20:26.585Z,40
2018-12-26T10:21:07.009Z,40
2018-12-26T10:21:47.410Z,40
2018-12-26T10:22:27.818Z,35
2018-12-26T10:23:08.222Z,35
2018-12-26T10:23:48.659Z,40
2018-12-26T10:24:29.057Z,40
2018-12-26T10:25:09.453Z,40
2018-12-26T10:25:49.875Z,40
2018-12-26T10:26:30.242Z,40
2018-12-26T10:27:10.663Z,40
2018-12-26T10:27:51.055Z,40
2018-12-26T10:28:31.478Z,40
2018-12-26T10:29:11.909Z,35
2018-12-26T11:10:47.105Z,35
2018-12-26T11:11:27.672Z,35
2018-12-26T11:12:08.083Z,35
2018-12-26T11:12:48.445Z,35
2018-12-26T11:13:28.853Z,35
2018-12-26T11:14:09.260Z,35
2018-12-26T11:14:49.642Z,35
2018-12-26T11:15:30.023Z,35
2018-12-26T11:16:10.378Z,35
2018-12-26T11:16:51.883Z,35
2018-12-26T11:17:31.229Z,35
2018-12-26T11:18:11.628Z,35
2018-12-26T11:18:52.027Z,35
2018-12-26T11:19:32.591Z,40
2018-12-26T11:20:12.808Z,40
2018-12-26T11:20:53.178Z,40
2018-12-26T11:21:33.585Z,40
2018-12-26T11:22:13.967Z,40
2018-12-26T11:22:54.377Z,40
2018-12-26T11:23:34.800Z,40
2018-12-26T11:24:15.201Z,40
2018-12-26T11:24:55.582Z,40
2018-12-26T11:25:35.971Z,40
2018-12-26T11:26:16.374Z,40
2018-12-26T11:26:56.747Z,40
2018-12-26T11:27:37.135Z,40
2018-12-26T11:28:17.543Z,40
2018-12-26T11:28:57.928Z,35
2018-12-26T11:29:38.401Z,35
2018-12-26T11:30:18.777Z,35
2018-12-26T11:30:59.127Z,35
2018-12-26T11:35:08.131Z,35
2018-12-26T11:35:48.593Z,35
2018-12-26T11:36:28.970Z,35
2018-12-26T11:37:09.350Z,35
2018-12-26T11:37:49.751Z,35
2018-12-26T11:38:30.165Z,35
2018-12-26T11:39:10.549Z,35
2018-12-26T11:39:50.951Z,35
2018-12-26T11:40:31.322Z,35
2018-12-26T11:41:11.750Z,35
2018-12-26T11:41:52.143Z,35
2018-12-26T11:42:32.544Z,35
2018-12-26T11:43:12.979Z,35
2018-12-26T11:43:53.365Z,35
2018-12-26T11:44:35.407Z,35
2018-12-26T11:45:15.836Z,35
2018-12-26T11:45:56.275Z,35
2018-12-26T11:46:36.617Z,35
2018-12-26T11:47:17.054Z,35
2018-12-26T11:47:57.398Z,35
2018-12-26T11:48:37.847Z,35
2018-12-26T11:49:18.266Z,35
2018-12-26T11:49:58.649Z,35
2018-12-26T11:50:39.079Z,35
2018-12-26T11:51:19.429Z,35
2018-12-26T11:51:59.947Z,35
2018-12-26T11:54:17.832Z,35
2018-12-26T11:54:58.247Z,35
2018-12-26T11:55:38.622Z,35
2018-12-26T11:56:19.045Z,35
2018-12-26T11:56:59.413Z,35
2018-12-26T11:57:39.805Z,35
2018-12-26T11:58:20.223Z,35
2018-12-26T11:59:00.678Z,35
2018-12-26T11:59:40.989Z,35
2018-12-26T12:00:21.396Z,35
2018-12-26T12:01:01.792Z,35
2018-12-26T12:01:42.198Z,35
2018-12-26T12:02:22.608Z,35
2018-12-26T12:03:02.989Z,35
2018-12-26T12:06:56.573Z,35
2018-12-26T12:07:36.905Z,35
2018-12-26T12:08:17.322Z,35
2018-12-26T12:08:57.664Z,35
2018-12-26T12:09:38.118Z,35
2018-12-26T12:10:18.493Z,35
2018-12-26T12:10:58.873Z,35
2018-12-26T12:11:39.339Z,35
2018-12-26T12:12:19.686Z,35
2018-12-26T12:13:00.097Z,35
2018-12-26T12:13:40.488Z,35
2018-12-26T12:14:20.904Z,35
2018-12-26T12:15:01.319Z,35
2018-12-26T12:15:41.735Z,35
2018-12-26T12:16:22.153Z,35
2018-12-26T12:17:02.535Z,35
2018-12-26T12:17:42.936Z,35
2018-12-26T12:18:23.371Z,35
2018-12-26T12:19:03.733Z,35
2018-12-26T12:19:45.158Z,35
2018-12-26T12:20:24.519Z,35
2018-12-26T12:21:04.907Z,35
2018-12-26T12:21:45.326Z,35
2018-12-26T12:22:25.710Z,35
2018-12-26T12:23:06.131Z,35
2018-12-26T12:23:46.490Z,35
2018-12-26T12:24:26.886Z,35
2018-12-26T12:25:07.285Z,35
2018-12-26T12:25:47.705Z,35
2018-12-26T12:26:28.406Z,35
2018-12-26T12:27:08.510Z,35
2018-12-26T12:27:48.916Z,35
2018-12-26T12:28:29.322Z,35
2018-12-26T12:29:09.726Z,35
2018-12-26T12:29:50.123Z,35
2018-12-26T12:35:44.587Z,40
2018-12-26T12:36:24.982Z,40
2018-12-26T12:37:05.409Z,40
2018-12-26T12:37:45.794Z,40
2018-12-26T12:38:26.182Z,40
2018-12-26T12:45:41.263Z,40
2018-12-26T12:46:21.604Z,40
2018-12-26T12:47:02.021Z,40
2018-12-26T12:47:42.517Z,40
2018-12-26T12:48:22.817Z,40
2018-12-26T12:49:03.235Z,35
2018-12-26T12:49:43.649Z,40
2018-12-26T12:50:24.057Z,40
2018-12-26T12:51:04.466Z,40
2018-12-26T12:51:44.866Z,40
2018-12-26T12:52:25.251Z,40
2018-12-26T12:53:05.654Z,35
2018-12-26T12:53:46.044Z,35
2018-12-26T12:54:26.456Z,35
2018-12-26T12:55:06.852Z,35
2018-12-26T12:55:47.245Z,35
2018-12-26T12:56:27.663Z,35
2018-12-26T12:57:08.065Z,35
2018-12-26T12:57:48.454Z,35
2018-12-26T12:58:28.876Z,35
2018-12-26T12:59:09.277Z,35
2018-12-26T12:59:49.677Z,35
2018-12-26T13:00:30.128Z,35
2018-12-26T13:01:10.502Z,35
2018-12-26T13:01:50.856Z,35
2018-12-26T13:02:31.276Z,35
2018-12-26T13:03:11.649Z,35
2018-12-26T13:03:52.062Z,35
2018-12-26T13:11:12.408Z,35
2018-12-26T13:11:52.820Z,35
2018-12-26T13:12:33.262Z,35
2018-12-26T13:13:13.647Z,30
2018-12-26T13:13:54.048Z,30
2018-12-26T13:14:34.415Z,30
2018-12-26T13:15:14.822Z,30
2018-12-26T13:15:55.204Z,30
2018-12-26T13:16:35.588Z,30
2018-12-26T13:17:15.972Z,30
2018-12-26T13:17:56.355Z,25
2018-12-26T14:05:35.522Z,20
2018-12-26T14:06:15.934Z,20
2018-12-26T14:06:56.310Z,20
2018-12-26T14:07:38.784Z,20
2018-12-26T14:08:19.194Z,20
2018-12-26T14:09:02.556Z,20
2018-12-26T14:09:42.944Z,20
2018-12-26T14:10:23.326Z,15
2018-12-26T14:11:05.706Z,15
2018-12-26T14:11:46.117Z,15
2018-12-26T14:12:26.475Z,15
2018-12-26T14:13:06.919Z,15
2018-12-26T14:13:47.292Z,15
2018-12-26T14:14:27.694Z,15
2018-12-26T14:15:09.700Z,15
2018-12-26T14:15:50.095Z,15
2018-12-26T14:16:30.490Z,15
2018-12-26T14:17:10.873Z,15
2018-12-26T14:17:51.260Z,15
2018-12-26T14:18:31.688Z,15
2018-12-26T14:19:13.041Z,15
2018-12-26T14:19:53.402Z,15
2018-12-26T14:20:33.773Z,15
2018-12-26T14:21:15.130Z,15
2018-12-26T14:21:55.506Z,15
2018-12-26T14:22:35.909Z,15
2018-12-26T14:23:16.339Z,15
2018-12-26T14:23:56.745Z,15
2018-12-26T14:24:39.030Z,15
2018-12-26T14:25:20.388Z,15
2018-12-26T14:26:00.740Z,15
2018-12-26T14:26:41.125Z,15
2018-12-26T14:27:29.027Z,15
2018-12-26T14:28:01.945Z,15
2018-12-26T14:28:42.320Z,15
2018-12-26T14:29:33.479Z,15
2018-12-26T14:43:48.104Z,10
2018-12-26T14:44:28.505Z,10
2018-12-26T14:45:17.913Z,10
2018-12-26T14:45:58.317Z,10
2018-12-26T14:46:40.664Z,15
2018-12-26T14:47:21.069Z,10
2018-12-26T14:48:01.444Z,10
2018-12-26T14:48:43.668Z,10
2018-12-26T14:49:24.053Z,10
2018-12-26T14:50:06.178Z,10
2018-12-26T14:50:48.208Z,10
2018-12-26T14:51:30.189Z,10
2018-12-26T14:52:10.541Z,10
2018-12-26T14:52:50.932Z,10
2018-12-26T14:53:31.345Z,10
2018-12-26T14:54:11.741Z,10
2018-12-26T14:54:52.156Z,10
2018-12-26T14:55:32.520Z,10
2018-12-26T14:56:12.914Z,10
2018-12-26T14:56:53.279Z,10
2018-12-26T14:57:33.682Z,10
2018-12-26T14:58:14.093Z,10
2018-12-26T14:58:54.489Z,10
2018-12-26T14:59:36.691Z,5
2018-12-26T15:00:20.540Z,5
2018-12-26T15:01:00.880Z,5
2018-12-26T15:01:41.248Z,5
2018-12-26T15:02:21.674Z,10
2018-12-26T15:03:05.850Z,10
2018-12-26T15:03:47.974Z,10
2018-12-26T15:04:28.359Z,10
2018-12-26T15:05:08.771Z,10
2018-12-26T15:05:49.139Z,10
2018-12-26T15:06:29.533Z,10
2018-12-26T15:07:09.939Z,10
2018-12-26T15:07:50.305Z,5
2018-12-26T15:08:30.732Z,5
2018-12-26T15:09:11.140Z,5
2018-12-26T15:09:51.511Z,5
2018-12-26T15:10:31.888Z,5
2018-12-26T15:11:12.330Z,5
2018-12-26T15:11:52.692Z,5
2018-12-26T15:12:33.163Z,5
2018-12-26T15:13:13.556Z,5
2018-12-26T15:13:53.968Z,5
2018-12-26T15:14:34.319Z,5
2018-12-26T15:15:14.710Z,5
2018-12-26T15:15:55.091Z,5
2018-12-26T15:16:35.523Z,0
2018-12-26T15:17:15.945Z,0
2018-12-26T15:17:56.378Z,0
2018-12-26T15:18:36.734Z,0
2018-12-26T15:19:17.181Z,0
2018-12-26T15:19:57.567Z,0
2018-12-26T15:20:37.938Z,0
2018-12-26T15:21:18.351Z,0
2018-12-26T15:21:59.691Z,0
2018-12-26T15:22:40.076Z,0
2018-12-26T15:23:20.500Z,0
2018-12-26T15:24:00.837Z,0
2018-12-26T15:24:41.261Z,0
2018-12-26T15:25:21.652Z,0
2018-12-26T15:26:02.078Z,0
2018-12-26T15:26:42.449Z,0
2018-12-26T15:27:22.900Z,0
2018-12-26T15:28:03.258Z,0
2018-12-26T15:28:43.682Z,0
2018-12-26T15:29:24.059Z,0
2018-12-26T15:30:04.460Z,0
2018-12-26T15:30:44.843Z,0
2018-12-26T15:31:25.267Z,0
2018-12-26T15:32:05.707Z,0
2018-12-26T15:32:46.082Z,0
2018-12-26T15:33:27.441Z,0
2018-12-26T15:34:07.831Z,0
2018-12-26T15:34:48.222Z,0
2018-12-26T15:35:30.542Z,0
2018-12-26T15:36:10.937Z,0
2018-12-26T15:36:51.370Z,0
2018-12-26T15:37:31.767Z,0
2018-12-26T15:38:13.140Z,0
2018-12-26T15:38:53.518Z,0
2018-12-26T15:39:33.945Z,0
2018-12-26T15:40:14.303Z,0
2018-12-26T15:40:56.567Z,0
2018-12-26T15:41:36.905Z,0
2018-12-26T15:42:17.292Z,0
2018-12-26T15:42:57.713Z,0
2018-12-26T15:43:38.101Z,0
2018-12-26T15:44:18.500Z,0
2018-12-26T15:44:58.900Z,0
2018-12-26T15:45:39.381Z,0
2018-12-26T15:46:19.836Z,0
2018-12-26T15:47:01.103Z,0
2018-12-26T15:47:41.519Z,0
2018-12-26T15:48:21.902Z,0
2018-12-26T16:00:49.110Z,0
2018-12-26T16:01:29.526Z,0
2018-12-26T16:02:09.980Z,0
2018-12-26T16:02:50.345Z,0
2018-12-26T16:03:30.753Z,0
2018-12-26T16:04:12.981Z,0
2018-12-26T16:04:53.402Z,0
2018-12-26T16:05:33.783Z,0
2018-12-26T16:06:14.152Z,0
2018-12-26T16:06:54.545Z,0
2018-12-26T16:07:36.813Z,0
2018-12-26T16:08:17.218Z,0
2018-12-26T16:08:57.612Z,0
2018-12-26T16:09:39.100Z,0
2018-12-26T16:12:13.357Z,0
2018-12-26T16:12:53.723Z,0
2018-12-26T16:13:34.175Z,0
2018-12-26T16:14:14.540Z,0
2018-12-26T16:14:55.901Z,0
2018-12-26T16:15:37.289Z,0
2018-12-26T16:16:19.467Z,0
2018-12-26T16:18:58.606Z,0
2018-12-26T16:19:39.026Z,0
2018-12-26T16:20:19.391Z,0
2018-12-26T16:21:00.712Z,0
2018-12-26T16:21:42.077Z,0
2018-12-26T16:22:22.491Z,0
2018-12-26T16:23:02.886Z,0
2018-12-26T16:23:44.260Z,0
2018-12-26T16:24:24.652Z,0
2018-12-26T16:25:05.010Z,0
2018-12-26T16:25:45.438Z,0
2018-12-26T16:26:25.831Z,0
2018-12-26T16:27:06.210Z,0
2018-12-26T16:27:59.052Z,0
2018-12-26T16:28:39.451Z,0
2018-12-26T16:29:19.812Z,0
2018-12-26T16:30:00.182Z,0
2018-12-26T16:30:46.058Z,0
2018-12-26T16:31:21.901Z,0
2018-12-26T16:32:02.309Z,0
2018-12-26T16:32:42.700Z,0
2018-12-26T17:22:19.846Z,0
2018-12-26T17:23:00.078Z,0
2018-12-26T17:23:40.491Z,0
2018-12-26T17:24:21.837Z,0
2018-12-26T17:25:02.239Z,0
2018-12-26T17:25:42.599Z,0
2018-12-26T17:26:22.998Z,0
2018-12-26T17:27:03.441Z,0
2018-12-26T17:27:43.796Z,0
2018-12-26T17:28:24.227Z,0
2018-12-26T17:29:04.588Z,0
2018-12-26T17:29:44.964Z,0
2018-12-26T17:30:25.349Z,0
2018-12-26T17:31:05.761Z,0
2018-12-26T17:31:46.169Z,0
2018-12-26T17:32:26.562Z,0
2018-12-26T17:33:06.999Z,0
2018-12-26T17:33:47.368Z,0
2018-12-26T17:34:27.761Z,0
2018-12-26T17:36:40.692Z,0
2018-12-26T17:37:21.067Z,0
2018-12-26T17:38:03.066Z,0
2018-12-26T17:38:43.465Z,0
2018-12-26T17:39:23.899Z,0
2018-12-26T17:40:04.260Z,0
2018-12-26T17:40:44.646Z,0
2018-12-26T17:41:25.038Z,0
2018-12-26T17:42:05.426Z,0
2018-12-26T17:42:45.873Z,0
2018-12-26T17:43:27.286Z,0
2018-12-26T17:44:07.594Z,0
2018-12-26T17:44:48.107Z,0
2018-12-26T17:45:28.457Z,0
2018-12-26T17:46:08.835Z,0
2018-12-26T17:46:49.248Z,0
2018-12-26T17:47:29.660Z,0
2018-12-26T17:48:10.068Z,0
2018-12-26T17:48:50.436Z,0
2018-12-26T18:03:10.377Z,0
2018-12-26T18:03:50.521Z,0
2018-12-26T18:04:30.946Z,0
2018-12-26T18:05:11.341Z,0
2018-12-26T18:05:51.717Z,0
2018-12-26T18:06:32.134Z,0
2018-12-26T18:07:12.537Z,0
2018-12-26T18:07:52.907Z,0
2018-12-26T18:08:33.335Z,0
2018-12-26T18:09:13.676Z,0
2018-12-26T18:09:54.081Z,0
2018-12-26T18:10:34.497Z,0
2018-12-26T18:11:14.917Z,0
2018-12-26T18:44:03.805Z,0
2018-12-26T18:44:44.266Z,0
2018-12-26T18:45:24.620Z,0
2018-12-26T19:14:45.311Z,0
2018-12-26T19:15:25.755Z,0
2018-12-26T19:16:15.018Z,0
2018-12-26T19:16:55.423Z,0
2018-12-26T19:17:35.821Z,0
2018-12-26T19:18:16.269Z,0
2018-12-26T19:18:56.714Z,0
2018-12-26T19:19:37.125Z,0
2018-12-26T19:20:17.566Z,0
2018-12-26T19:20:57.940Z,0
2018-12-26T19:21:38.365Z,0
2018-12-26T19:22:18.815Z,0
2018-12-26T19:22:59.142Z,0
2018-12-26T19:23:39.534Z,0
2018-12-26T19:24:19.985Z,0
2018-12-26T19:25:00.377Z,0
2018-12-26T19:25:40.828Z,0
2018-12-26T19:26:21.236Z,0
2018-12-26T19:27:01.592Z,0
2018-12-26T19:27:42.090Z,0
2018-12-26T19:28:22.451Z,0
2018-12-26T19:29:02.879Z,0
2018-12-26T20:33:41.508Z,0
2018-12-26T20:34:21.903Z,0
2018-12-26T20:35:02.326Z,0
2018-12-26T20:35:42.754Z,0
2018-12-26T20:36:23.155Z,0
2018-12-26T20:37:03.514Z,0
2018-12-26T20:37:43.918Z,0
2018-12-26T20:38:24.348Z,0
2018-12-26T20:39:04.721Z,0
2018-12-26T20:39:45.112Z,0
2018-12-26T20:40:25.520Z,0
2018-12-26T20:41:05.892Z,0
2018-12-26T20:41:46.287Z,0
2018-12-26T20:42:26.722Z,0
2018-12-26T20:43:07.111Z,0
2018-12-26T20:43:47.490Z,0
2018-12-26T20:44:27.918Z,0
2018-12-26T20:45:08.276Z,0
2018-12-26T20:45:48.682Z,0
2018-12-26T20:46:29.030Z,0
2018-12-26T20:47:09.420Z,0
2018-12-26T20:47:49.814Z,0
2018-12-26T20:48:30.245Z,0
2018-12-26T22:21:45.950Z,0
2018-12-26T22:22:26.352Z,0
2018-12-26T22:23:06.711Z,0
2018-12-26T22:23:47.128Z,0
2018-12-26T22:24:27.490Z,0
2018-12-26T22:25:07.829Z,0
2018-12-26T22:25:48.294Z,0
2018-12-26T22:26:28.634Z,0
2018-12-26T22:27:09.044Z,0
2018-12-26T22:27:49.434Z,0
2018-12-26T22:28:29.854Z,0
2018-12-26T22:29:10.300Z,0
2018-12-26T23:57:13.691Z,0
2018-12-26T23:57:54.024Z,0
2018-12-26T23:58:34.436Z,0
2018-12-26T23:59:14.775Z,0
2018-12-26T23:59:55.211Z,0
